sensor_id;sensor_type;location;lat;lon;timestamp;P1;durP1;ratioP1;P2;durP2;ratioP2
21360;SDS011;10839;43.206;23.550;2022-10-30T00:02:05;3.22;;;1.65;;
21360;SDS011;10839;43.206;23.550;2022-10-30T00:04:32;3.88;;;1.88;;
21360;SDS011;10839;43.206;23.550;2022-10-30T00:06:58;2.22;;;1.80;;
21360;SDS011;10839;43.206;23.550;2022-10-30T00:09:24;2.13;;;1.55;;
21360;SDS011;10839;43.206;23.550;2022-10-30T00:11:49;1.58;;;1.45;;
21360;SDS011;10839;43.206;23.550;2022-10-30T00:14:15;4.38;;;2.70;;
21360;SDS011;10839;43.206;23.550;2022-10-30T00:16:42;3.60;;;2.17;;
21360;SDS011;10839;43.206;23.550;2022-10-30T00:19:08;3.78;;;2.42;;
21360;SDS011;10839;43.206;23.550;2022-10-30T00:21:34;3.97;;;2.30;;
21360;SDS011;10839;43.206;23.550;2022-10-30T00:24:00;3.67;;;1.90;;
21360;SDS011;10839;43.206;23.550;2022-10-30T00:26:26;5.70;;;2.22;;
21360;SDS011;10839;43.206;23.550;2022-10-30T00:28:53;3.50;;;2.13;;
21360;SDS011;10839;43.206;23.550;2022-10-30T00:31:21;3.58;;;2.25;;
21360;SDS011;10839;43.206;23.550;2022-10-30T00:33:48;2.85;;;2.08;;
21360;SDS011;10839;43.206;23.550;2022-10-30T00:36:19;3.58;;;1.70;;
21360;SDS011;10839;43.206;23.550;2022-10-30T00:38:45;4.35;;;2.47;;
21360;SDS011;10839;43.206;23.550;2022-10-30T00:41:15;3.55;;;2.00;;
21360;SDS011;10839;43.206;23.550;2022-10-30T00:43:43;4.45;;;2.35;;
21360;SDS011;10839;43.206;23.550;2022-10-30T00:46:17;3.90;;;2.50;;
21360;SDS011;10839;43.206;23.550;2022-10-30T00:49:02;4.00;;;2.55;;
21360;SDS011;10839;43.206;23.550;2022-10-30T00:51:39;5.88;;;3.30;;
21360;SDS011;10839;43.206;23.550;2022-10-30T00:54:10;2.85;;;2.10;;
21360;SDS011;10839;43.206;23.550;2022-10-30T00:56:39;2.15;;;1.65;;
21360;SDS011;10839;43.206;23.550;2022-10-30T00:59:09;3.83;;;1.90;;
21360;SDS011;10839;43.206;23.550;2022-10-30T01:01:39;2.97;;;1.63;;
21360;SDS011;10839;43.206;23.550;2022-10-30T01:04:10;3.38;;;1.42;;
21360;SDS011;10839;43.206;23.550;2022-10-30T01:06:38;5.05;;;2.60;;
21360;SDS011;10839;43.206;23.550;2022-10-30T01:09:07;3.83;;;2.22;;
21360;SDS011;10839;43.206;23.550;2022-10-30T01:11:34;5.05;;;2.47;;
21360;SDS011;10839;43.206;23.550;2022-10-30T01:14:02;3.75;;;2.15;;
21360;SDS011;10839;43.206;23.550;2022-10-30T01:19:38;5.97;;;3.03;;
21360;SDS011;10839;43.206;23.550;2022-10-30T01:38:46;6.25;;;3.60;;
21360;SDS011;10839;43.206;23.550;2022-10-30T01:41:33;6.95;;;3.90;;
21360;SDS011;10839;43.206;23.550;2022-10-30T01:44:01;9.75;;;4.50;;
21360;SDS011;10839;43.206;23.550;2022-10-30T01:52:18;5.15;;;2.97;;
21360;SDS011;10839;43.206;23.550;2022-10-30T02:00:53;4.32;;;2.92;;
21360;SDS011;10839;43.206;23.550;2022-10-30T02:03:22;3.70;;;2.63;;
21360;SDS011;10839;43.206;23.550;2022-10-30T02:05:50;4.97;;;2.75;;
21360;SDS011;10839;43.206;23.550;2022-10-30T02:08:18;3.78;;;2.72;;
21360;SDS011;10839;43.206;23.550;2022-10-30T02:10:47;4.57;;;3.38;;
21360;SDS011;10839;43.206;23.550;2022-10-30T02:13:16;4.63;;;3.30;;
21360;SDS011;10839;43.206;23.550;2022-10-30T02:15:42;5.50;;;3.47;;
21360;SDS011;10839;43.206;23.550;2022-10-30T02:18:09;7.28;;;3.83;;
21360;SDS011;10839;43.206;23.550;2022-10-30T02:20:38;5.55;;;3.80;;
21360;SDS011;10839;43.206;23.550;2022-10-30T02:23:04;6.47;;;3.15;;
21360;SDS011;10839;43.206;23.550;2022-10-30T02:25:32;5.43;;;3.58;;
21360;SDS011;10839;43.206;23.550;2022-10-30T02:27:59;6.47;;;3.60;;
21360;SDS011;10839;43.206;23.550;2022-10-30T02:30:28;5.90;;;3.08;;
21360;SDS011;10839;43.206;23.550;2022-10-30T02:32:54;5.80;;;3.17;;
21360;SDS011;10839;43.206;23.550;2022-10-30T02:35:20;5.55;;;3.50;;
21360;SDS011;10839;43.206;23.550;2022-10-30T02:37:47;9.55;;;3.30;;
21360;SDS011;10839;43.206;23.550;2022-10-30T02:40:13;5.47;;;3.03;;
21360;SDS011;10839;43.206;23.550;2022-10-30T02:42:40;7.15;;;3.80;;
21360;SDS011;10839;43.206;23.550;2022-10-30T02:45:06;7.72;;;2.95;;
21360;SDS011;10839;43.206;23.550;2022-10-30T02:47:33;5.85;;;3.35;;
21360;SDS011;10839;43.206;23.550;2022-10-30T02:49:59;4.90;;;3.47;;
21360;SDS011;10839;43.206;23.550;2022-10-30T02:52:26;5.55;;;2.85;;
21360;SDS011;10839;43.206;23.550;2022-10-30T02:54:53;6.35;;;3.72;;
21360;SDS011;10839;43.206;23.550;2022-10-30T02:57:19;5.57;;;3.53;;
21360;SDS011;10839;43.206;23.550;2022-10-30T02:59:44;7.05;;;3.13;;
21360;SDS011;10839;43.206;23.550;2022-10-30T03:02:10;4.55;;;3.50;;
21360;SDS011;10839;43.206;23.550;2022-10-30T03:04:36;5.95;;;3.72;;
21360;SDS011;10839;43.206;23.550;2022-10-30T03:07:02;7.20;;;3.60;;
21360;SDS011;10839;43.206;23.550;2022-10-30T03:09:28;7.78;;;4.55;;
21360;SDS011;10839;43.206;23.550;2022-10-30T03:11:54;7.85;;;4.75;;
21360;SDS011;10839;43.206;23.550;2022-10-30T03:14:22;8.85;;;4.65;;
21360;SDS011;10839;43.206;23.550;2022-10-30T03:16:48;11.45;;;4.47;;
21360;SDS011;10839;43.206;23.550;2022-10-30T03:19:17;6.25;;;3.95;;
21360;SDS011;10839;43.206;23.550;2022-10-30T03:21:44;7.68;;;4.30;;
21360;SDS011;10839;43.206;23.550;2022-10-30T03:24:12;7.70;;;4.18;;
21360;SDS011;10839;43.206;23.550;2022-10-30T03:26:38;5.72;;;3.55;;
21360;SDS011;10839;43.206;23.550;2022-10-30T03:29:06;7.82;;;4.20;;
21360;SDS011;10839;43.206;23.550;2022-10-30T03:31:32;5.50;;;3.38;;
21360;SDS011;10839;43.206;23.550;2022-10-30T03:34:18;14.57;;;4.30;;
21360;SDS011;10839;43.206;23.550;2022-10-30T03:36:44;8.40;;;5.20;;
21360;SDS011;10839;43.206;23.550;2022-10-30T03:39:11;8.32;;;3.92;;
21360;SDS011;10839;43.206;23.550;2022-10-30T03:41:40;8.05;;;4.15;;
21360;SDS011;10839;43.206;23.550;2022-10-30T03:44:08;4.57;;;3.45;;
21360;SDS011;10839;43.206;23.550;2022-10-30T03:46:34;5.97;;;3.60;;
21360;SDS011;10839;43.206;23.550;2022-10-30T03:49:21;7.75;;;3.95;;
21360;SDS011;10839;43.206;23.550;2022-10-30T03:51:47;8.32;;;3.30;;
21360;SDS011;10839;43.206;23.550;2022-10-30T03:54:13;6.25;;;3.80;;
21360;SDS011;10839;43.206;23.550;2022-10-30T03:56:39;6.63;;;3.72;;
21360;SDS011;10839;43.206;23.550;2022-10-30T03:59:08;4.82;;;3.40;;
21360;SDS011;10839;43.206;23.550;2022-10-30T04:01:37;6.25;;;3.45;;
21360;SDS011;10839;43.206;23.550;2022-10-30T04:04:03;5.15;;;3.55;;
21360;SDS011;10839;43.206;23.550;2022-10-30T04:06:30;6.20;;;3.67;;
21360;SDS011;10839;43.206;23.550;2022-10-30T04:08:56;8.32;;;3.58;;
21360;SDS011;10839;43.206;23.550;2022-10-30T04:11:23;6.85;;;3.60;;
21360;SDS011;10839;43.206;23.550;2022-10-30T04:13:49;7.90;;;3.72;;
21360;SDS011;10839;43.206;23.550;2022-10-30T04:16:15;4.00;;;3.03;;
21360;SDS011;10839;43.206;23.550;2022-10-30T04:18:42;5.65;;;3.83;;
21360;SDS011;10839;43.206;23.550;2022-10-30T04:21:08;5.95;;;3.65;;
21360;SDS011;10839;43.206;23.550;2022-10-30T04:23:36;6.72;;;3.80;;
21360;SDS011;10839;43.206;23.550;2022-10-30T04:26:03;7.43;;;3.83;;
21360;SDS011;10839;43.206;23.550;2022-10-30T04:28:29;5.53;;;3.42;;
21360;SDS011;10839;43.206;23.550;2022-10-30T04:30:55;6.22;;;3.67;;
21360;SDS011;10839;43.206;23.550;2022-10-30T04:33:24;6.97;;;3.72;;
21360;SDS011;10839;43.206;23.550;2022-10-30T04:35:50;5.70;;;3.75;;
21360;SDS011;10839;43.206;23.550;2022-10-30T04:38:19;5.85;;;3.63;;
21360;SDS011;10839;43.206;23.550;2022-10-30T04:40:46;6.38;;;3.90;;
21360;SDS011;10839;43.206;23.550;2022-10-30T04:43:13;6.55;;;2.63;;
21360;SDS011;10839;43.206;23.550;2022-10-30T04:45:40;6.07;;;3.92;;
21360;SDS011;10839;43.206;23.550;2022-10-30T04:48:11;5.50;;;3.85;;
21360;SDS011;10839;43.206;23.550;2022-10-30T04:50:42;6.28;;;3.50;;
21360;SDS011;10839;43.206;23.550;2022-10-30T04:53:11;5.78;;;3.78;;
21360;SDS011;10839;43.206;23.550;2022-10-30T04:55:40;8.68;;;3.22;;
21360;SDS011;10839;43.206;23.550;2022-10-30T04:58:08;6.07;;;3.33;;
21360;SDS011;10839;43.206;23.550;2022-10-30T05:00:38;6.30;;;3.05;;
21360;SDS011;10839;43.206;23.550;2022-10-30T05:03:19;6.30;;;3.30;;
21360;SDS011;10839;43.206;23.550;2022-10-30T05:06:00;6.53;;;3.53;;
21360;SDS011;10839;43.206;23.550;2022-10-30T05:08:47;7.68;;;3.65;;
21360;SDS011;10839;43.206;23.550;2022-10-30T05:11:36;5.35;;;3.55;;
21360;SDS011;10839;43.206;23.550;2022-10-30T05:14:02;5.70;;;3.55;;
21360;SDS011;10839;43.206;23.550;2022-10-30T05:16:28;6.55;;;4.20;;
21360;SDS011;10839;43.206;23.550;2022-10-30T05:18:56;6.38;;;4.40;;
21360;SDS011;10839;43.206;23.550;2022-10-30T05:21:22;8.60;;;4.30;;
21360;SDS011;10839;43.206;23.550;2022-10-30T05:23:48;9.60;;;3.80;;
21360;SDS011;10839;43.206;23.550;2022-10-30T05:26:14;5.80;;;3.17;;
21360;SDS011;10839;43.206;23.550;2022-10-30T05:28:39;4.57;;;3.10;;
21360;SDS011;10839;43.206;23.550;2022-10-30T05:31:07;4.68;;;2.92;;
21360;SDS011;10839;43.206;23.550;2022-10-30T05:34:11;5.82;;;2.80;;
21360;SDS011;10839;43.206;23.550;2022-10-30T05:36:38;4.70;;;2.78;;
21360;SDS011;10839;43.206;23.550;2022-10-30T05:39:04;5.80;;;3.00;;
21360;SDS011;10839;43.206;23.550;2022-10-30T05:41:34;4.13;;;2.63;;
21360;SDS011;10839;43.206;23.550;2022-10-30T05:44:01;4.22;;;2.92;;
21360;SDS011;10839;43.206;23.550;2022-10-30T05:46:28;3.80;;;2.85;;
21360;SDS011;10839;43.206;23.550;2022-10-30T05:49:04;3.72;;;2.65;;
21360;SDS011;10839;43.206;23.550;2022-10-30T05:51:30;3.13;;;2.67;;
21360;SDS011;10839;43.206;23.550;2022-10-30T05:54:03;4.32;;;2.70;;
21360;SDS011;10839;43.206;23.550;2022-10-30T05:56:30;3.92;;;3.00;;
21360;SDS011;10839;43.206;23.550;2022-10-30T05:58:57;5.00;;;2.72;;
21360;SDS011;10839;43.206;23.550;2022-10-30T06:01:24;5.93;;;2.75;;
21360;SDS011;10839;43.206;23.550;2022-10-30T06:03:54;4.97;;;2.78;;
21360;SDS011;10839;43.206;23.550;2022-10-30T06:06:20;5.40;;;2.83;;
21360;SDS011;10839;43.206;23.550;2022-10-30T06:08:46;5.03;;;3.30;;
21360;SDS011;10839;43.206;23.550;2022-10-30T06:11:30;6.47;;;3.80;;
21360;SDS011;10839;43.206;23.550;2022-10-30T06:13:58;4.85;;;3.55;;
21360;SDS011;10839;43.206;23.550;2022-10-30T06:16:50;4.63;;;3.08;;
21360;SDS011;10839;43.206;23.550;2022-10-30T06:19:45;4.63;;;2.88;;
21360;SDS011;10839;43.206;23.550;2022-10-30T06:22:30;5.20;;;2.80;;
21360;SDS011;10839;43.206;23.550;2022-10-30T06:25:01;4.40;;;3.13;;
21360;SDS011;10839;43.206;23.550;2022-10-30T06:27:46;5.13;;;2.85;;
21360;SDS011;10839;43.206;23.550;2022-10-30T06:30:12;5.55;;;2.60;;
21360;SDS011;10839;43.206;23.550;2022-10-30T06:32:38;3.67;;;2.67;;
21360;SDS011;10839;43.206;23.550;2022-10-30T06:35:04;4.15;;;2.70;;
21360;SDS011;10839;43.206;23.550;2022-10-30T06:37:30;4.00;;;2.80;;
21360;SDS011;10839;43.206;23.550;2022-10-30T06:40:01;8.93;;;3.65;;
21360;SDS011;10839;43.206;23.550;2022-10-30T06:42:56;4.38;;;3.55;;
21360;SDS011;10839;43.206;23.550;2022-10-30T06:45:33;4.43;;;3.53;;
21360;SDS011;10839;43.206;23.550;2022-10-30T06:48:00;4.55;;;2.80;;
21360;SDS011;10839;43.206;23.550;2022-10-30T06:50:28;3.15;;;2.55;;
21360;SDS011;10839;43.206;23.550;2022-10-30T06:52:54;5.18;;;2.47;;
21360;SDS011;10839;43.206;23.550;2022-10-30T06:55:20;3.10;;;2.30;;
21360;SDS011;10839;43.206;23.550;2022-10-30T06:58:09;4.60;;;2.53;;
21360;SDS011;10839;43.206;23.550;2022-10-30T07:00:54;5.30;;;2.50;;
21360;SDS011;10839;43.206;23.550;2022-10-30T07:03:20;3.63;;;2.28;;
21360;SDS011;10839;43.206;23.550;2022-10-30T07:05:47;5.68;;;2.55;;
21360;SDS011;10839;43.206;23.550;2022-10-30T07:08:13;3.88;;;2.47;;
21360;SDS011;10839;43.206;23.550;2022-10-30T07:10:39;3.38;;;2.72;;
21360;SDS011;10839;43.206;23.550;2022-10-30T07:13:25;3.22;;;2.60;;
21360;SDS011;10839;43.206;23.550;2022-10-30T07:15:57;4.78;;;2.70;;
21360;SDS011;10839;43.206;23.550;2022-10-30T07:18:27;5.45;;;2.60;;
21360;SDS011;10839;43.206;23.550;2022-10-30T07:20:56;4.15;;;2.80;;
21360;SDS011;10839;43.206;23.550;2022-10-30T07:23:23;3.28;;;2.63;;
21360;SDS011;10839;43.206;23.550;2022-10-30T07:25:53;3.95;;;2.70;;
21360;SDS011;10839;43.206;23.550;2022-10-30T07:28:31;5.20;;;3.03;;
21360;SDS011;10839;43.206;23.550;2022-10-30T07:31:15;3.85;;;2.65;;
21360;SDS011;10839;43.206;23.550;2022-10-30T07:33:50;4.80;;;3.33;;
21360;SDS011;10839;43.206;23.550;2022-10-30T07:36:32;7.30;;;3.60;;
21360;SDS011;10839;43.206;23.550;2022-10-30T07:39:02;5.70;;;2.80;;
21360;SDS011;10839;43.206;23.550;2022-10-30T07:41:38;2.95;;;2.58;;
21360;SDS011;10839;43.206;23.550;2022-10-30T07:44:33;6.00;;;2.65;;
21360;SDS011;10839;43.206;23.550;2022-10-30T07:47:15;4.18;;;2.25;;
21360;SDS011;10839;43.206;23.550;2022-10-30T07:49:54;3.70;;;2.50;;
21360;SDS011;10839;43.206;23.550;2022-10-30T07:52:20;4.80;;;2.58;;
21360;SDS011;10839;43.206;23.550;2022-10-30T07:54:47;5.68;;;2.45;;
21360;SDS011;10839;43.206;23.550;2022-10-30T07:57:35;8.10;;;3.22;;
21360;SDS011;10839;43.206;23.550;2022-10-30T08:00:37;5.57;;;3.33;;
21360;SDS011;10839;43.206;23.550;2022-10-30T08:03:16;5.22;;;3.25;;
21360;SDS011;10839;43.206;23.550;2022-10-30T08:05:48;4.68;;;2.90;;
21360;SDS011;10839;43.206;23.550;2022-10-30T08:11:12;3.35;;;3.00;;
21360;SDS011;10839;43.206;23.550;2022-10-30T08:13:38;4.63;;;3.00;;
21360;SDS011;10839;43.206;23.550;2022-10-30T08:16:04;5.35;;;2.90;;
21360;SDS011;10839;43.206;23.550;2022-10-30T08:18:31;5.10;;;2.38;;
21360;SDS011;10839;43.206;23.550;2022-10-30T08:20:57;4.85;;;2.75;;
21360;SDS011;10839;43.206;23.550;2022-10-30T08:23:23;3.90;;;2.53;;
21360;SDS011;10839;43.206;23.550;2022-10-30T08:25:49;4.28;;;2.47;;
21360;SDS011;10839;43.206;23.550;2022-10-30T08:28:16;4.75;;;2.70;;
21360;SDS011;10839;43.206;23.550;2022-10-30T08:30:43;6.22;;;2.33;;
21360;SDS011;10839;43.206;23.550;2022-10-30T08:33:12;7.50;;;2.20;;
21360;SDS011;10839;43.206;23.550;2022-10-30T08:36:05;4.22;;;2.70;;
21360;SDS011;10839;43.206;23.550;2022-10-30T08:38:31;9.60;;;3.70;;
21360;SDS011;10839;43.206;23.550;2022-10-30T08:41:26;5.95;;;3.53;;
21360;SDS011;10839;43.206;23.550;2022-10-30T08:43:53;4.38;;;2.40;;
21360;SDS011;10839;43.206;23.550;2022-10-30T08:46:21;3.58;;;2.70;;
21360;SDS011;10839;43.206;23.550;2022-10-30T08:48:47;5.80;;;2.92;;
21360;SDS011;10839;43.206;23.550;2022-10-30T08:51:13;3.92;;;3.00;;
21360;SDS011;10839;43.206;23.550;2022-10-30T08:53:43;5.45;;;2.70;;
21360;SDS011;10839;43.206;23.550;2022-10-30T08:56:12;15.10;;;10.52;;
21360;SDS011;10839;43.206;23.550;2022-10-30T08:58:52;8.07;;;2.67;;
21360;SDS011;10839;43.206;23.550;2022-10-30T09:01:18;3.40;;;2.10;;
21360;SDS011;10839;43.206;23.550;2022-10-30T09:04:03;3.05;;;1.95;;
21360;SDS011;10839;43.206;23.550;2022-10-30T09:06:49;1.65;;;1.08;;
21360;SDS011;10839;43.206;23.550;2022-10-30T09:09:38;1.60;;;1.00;;
21360;SDS011;10839;43.206;23.550;2022-10-30T09:12:05;2.85;;;1.48;;
21360;SDS011;10839;43.206;23.550;2022-10-30T09:14:38;2.28;;;1.10;;
21360;SDS011;10839;43.206;23.550;2022-10-30T09:17:05;2.25;;;1.00;;
21360;SDS011;10839;43.206;23.550;2022-10-30T09:19:34;1.98;;;1.10;;
21360;SDS011;10839;43.206;23.550;2022-10-30T09:22:00;1.27;;;0.95;;
21360;SDS011;10839;43.206;23.550;2022-10-30T09:24:26;2.20;;;0.82;;
21360;SDS011;10839;43.206;23.550;2022-10-30T09:26:53;2.08;;;1.10;;
21360;SDS011;10839;43.206;23.550;2022-10-30T09:29:23;3.47;;;1.45;;
21360;SDS011;10839;43.206;23.550;2022-10-30T09:32:01;2.40;;;1.80;;
21360;SDS011;10839;43.206;23.550;2022-10-30T09:34:37;7.47;;;5.47;;
21360;SDS011;10839;43.206;23.550;2022-10-30T09:37:32;10.85;;;7.82;;
21360;SDS011;10839;43.206;23.550;2022-10-30T09:39:59;13.10;;;8.32;;
21360;SDS011;10839;43.206;23.550;2022-10-30T09:53:43;5.57;;;2.33;;
21360;SDS011;10839;43.206;23.550;2022-10-30T09:57:10;3.03;;;2.00;;
21360;SDS011;10839;43.206;23.550;2022-10-30T10:08:05;3.40;;;1.20;;
21360;SDS011;10839;43.206;23.550;2022-10-30T10:10:57;1.87;;;1.50;;
21360;SDS011;10839;43.206;23.550;2022-10-30T10:13:45;2.25;;;1.02;;
21360;SDS011;10839;43.206;23.550;2022-10-30T10:16:16;1.27;;;0.98;;
21360;SDS011;10839;43.206;23.550;2022-10-30T10:18:48;2.05;;;1.05;;
21360;SDS011;10839;43.206;23.550;2022-10-30T10:21:23;2.83;;;0.80;;
21360;SDS011;10839;43.206;23.550;2022-10-30T10:23:58;1.33;;;0.80;;
21360;SDS011;10839;43.206;23.550;2022-10-30T10:26:29;2.38;;;0.90;;
21360;SDS011;10839;43.206;23.550;2022-10-30T10:29:15;9.20;;;5.63;;
21360;SDS011;10839;43.206;23.550;2022-10-30T10:34:52;11.00;;;7.57;;
21360;SDS011;10839;43.206;23.550;2022-10-30T10:37:34;6.65;;;4.10;;
21360;SDS011;10839;43.206;23.550;2022-10-30T10:40:14;7.18;;;3.13;;
21360;SDS011;10839;43.206;23.550;2022-10-30T10:45:19;6.97;;;4.00;;
21360;SDS011;10839;43.206;23.550;2022-10-30T10:51:17;5.50;;;2.00;;
21360;SDS011;10839;43.206;23.550;2022-10-30T10:53:50;6.57;;;2.20;;
21360;SDS011;10839;43.206;23.550;2022-10-30T10:56:31;0.87;;;0.53;;
21360;SDS011;10839;43.206;23.550;2022-10-30T10:59:02;4.00;;;1.08;;
21360;SDS011;10839;43.206;23.550;2022-10-30T11:04:17;2.38;;;1.20;;
21360;SDS011;10839;43.206;23.550;2022-10-30T11:06:51;8.73;;;5.03;;
21360;SDS011;10839;43.206;23.550;2022-10-30T11:09:21;5.30;;;1.65;;
21360;SDS011;10839;43.206;23.550;2022-10-30T11:11:48;2.70;;;1.08;;
21360;SDS011;10839;43.206;23.550;2022-10-30T11:14:34;3.28;;;0.90;;
21360;SDS011;10839;43.206;23.550;2022-10-30T11:20:54;2.65;;;0.90;;
21360;SDS011;10839;43.206;23.550;2022-10-30T11:23:05;2.10;;;0.85;;
21360;SDS011;10839;43.206;23.550;2022-10-30T11:25:55;3.38;;;1.00;;
21360;SDS011;10839;43.206;23.550;2022-10-30T11:28:55;2.67;;;0.90;;
21360;SDS011;10839;43.206;23.550;2022-10-30T11:31:34;2.25;;;0.93;;
21360;SDS011;10839;43.206;23.550;2022-10-30T11:34:23;1.27;;;0.55;;
21360;SDS011;10839;43.206;23.550;2022-10-30T11:36:55;3.90;;;0.73;;
21360;SDS011;10839;43.206;23.550;2022-10-30T11:39:42;1.50;;;0.65;;
21360;SDS011;10839;43.206;23.550;2022-10-30T11:42:13;1.90;;;0.73;;
21360;SDS011;10839;43.206;23.550;2022-10-30T11:44:43;2.72;;;0.88;;
21360;SDS011;10839;43.206;23.550;2022-10-30T11:47:13;1.90;;;0.73;;
21360;SDS011;10839;43.206;23.550;2022-10-30T11:52:09;1.83;;;0.82;;
21360;SDS011;10839;43.206;23.550;2022-10-30T11:54:37;3.63;;;1.00;;
21360;SDS011;10839;43.206;23.550;2022-10-30T11:59:46;2.08;;;0.73;;
21360;SDS011;10839;43.206;23.550;2022-10-30T12:04:45;4.47;;;1.42;;
21360;SDS011;10839;43.206;23.550;2022-10-30T12:09:52;4.00;;;1.10;;
21360;SDS011;10839;43.206;23.550;2022-10-30T12:14:53;1.63;;;1.15;;
21360;SDS011;10839;43.206;23.550;2022-10-30T12:17:19;3.17;;;0.80;;
21360;SDS011;10839;43.206;23.550;2022-10-30T12:19:52;2.63;;;1.15;;
21360;SDS011;10839;43.206;23.550;2022-10-30T12:22:27;6.95;;;0.90;;
21360;SDS011;10839;43.206;23.550;2022-10-30T12:24:56;3.40;;;1.10;;
21360;SDS011;10839;43.206;23.550;2022-10-30T12:27:24;2.72;;;0.85;;
21360;SDS011;10839;43.206;23.550;2022-10-30T12:32:36;1.63;;;0.85;;
21360;SDS011;10839;43.206;23.550;2022-10-30T12:35:27;2.17;;;0.80;;
21360;SDS011;10839;43.206;23.550;2022-10-30T12:38:28;1.45;;;0.73;;
21360;SDS011;10839;43.206;23.550;2022-10-30T12:41:19;4.47;;;0.95;;
21360;SDS011;10839;43.206;23.550;2022-10-30T12:49:43;4.78;;;1.80;;
21360;SDS011;10839;43.206;23.550;2022-10-30T12:52:16;6.78;;;4.00;;
21360;SDS011;10839;43.206;23.550;2022-10-30T12:54:53;2.80;;;0.98;;
21360;SDS011;10839;43.206;23.550;2022-10-30T12:57:27;3.03;;;1.45;;
21360;SDS011;10839;43.206;23.550;2022-10-30T13:00:03;5.47;;;1.25;;
21360;SDS011;10839;43.206;23.550;2022-10-30T13:05:35;1.92;;;0.60;;
21360;SDS011;10839;43.206;23.550;2022-10-30T13:10:53;19.33;;;11.35;;
21360;SDS011;10839;43.206;23.550;2022-10-30T13:13:28;8.75;;;4.05;;
21360;SDS011;10839;43.206;23.550;2022-10-30T13:16:01;7.70;;;3.58;;
21360;SDS011;10839;43.206;23.550;2022-10-30T13:18:31;7.22;;;1.23;;
21360;SDS011;10839;43.206;23.550;2022-10-30T13:23:36;2.03;;;1.00;;
21360;SDS011;10839;43.206;23.550;2022-10-30T13:26:11;5.50;;;1.02;;
21360;SDS011;10839;43.206;23.550;2022-10-30T13:28:58;2.40;;;1.00;;
21360;SDS011;10839;43.206;23.550;2022-10-30T13:39:37;4.80;;;1.00;;
21360;SDS011;10839;43.206;23.550;2022-10-30T13:42:13;5.15;;;1.02;;
21360;SDS011;10839;43.206;23.550;2022-10-30T13:50:11;2.45;;;1.58;;
21360;SDS011;10839;43.206;23.550;2022-10-30T13:52:41;6.13;;;2.28;;
21360;SDS011;10839;43.206;23.550;2022-10-30T13:55:30;6.40;;;2.88;;
21360;SDS011;10839;43.206;23.550;2022-10-30T14:01:11;4.90;;;2.30;;
21360;SDS011;10839;43.206;23.550;2022-10-30T14:06:41;3.63;;;1.80;;
21360;SDS011;10839;43.206;23.550;2022-10-30T14:15:25;7.18;;;2.00;;
21360;SDS011;10839;43.206;23.550;2022-10-30T14:20:43;4.03;;;1.55;;
21360;SDS011;10839;43.206;23.550;2022-10-30T14:31:01;7.20;;;2.92;;
21360;SDS011;10839;43.206;23.550;2022-10-30T14:58:22;7.93;;;3.65;;
21360;SDS011;10839;43.206;23.550;2022-10-30T15:00:51;11.32;;;5.15;;
21360;SDS011;10839;43.206;23.550;2022-10-30T15:09:26;13.73;;;6.35;;
21360;SDS011;10839;43.206;23.550;2022-10-30T15:14:40;13.40;;;5.45;;
21360;SDS011;10839;43.206;23.550;2022-10-30T15:19:47;17.73;;;6.28;;
21360;SDS011;10839;43.206;23.550;2022-10-30T15:22:18;25.98;;;11.00;;
21360;SDS011;10839;43.206;23.550;2022-10-30T15:24:47;21.85;;;12.60;;
21360;SDS011;10839;43.206;23.550;2022-10-30T15:27:19;28.25;;;11.75;;
21360;SDS011;10839;43.206;23.550;2022-10-30T15:29:52;20.35;;;8.45;;
21360;SDS011;10839;43.206;23.550;2022-10-30T15:32:21;24.33;;;7.32;;
21360;SDS011;10839;43.206;23.550;2022-10-30T15:34:57;12.73;;;5.72;;
21360;SDS011;10839;43.206;23.550;2022-10-30T15:37:30;17.00;;;5.13;;
21360;SDS011;10839;43.206;23.550;2022-10-30T15:42:45;9.48;;;4.97;;
21360;SDS011;10839;43.206;23.550;2022-10-30T15:45:17;17.65;;;7.57;;
21360;SDS011;10839;43.206;23.550;2022-10-30T15:48:07;14.57;;;7.00;;
21360;SDS011;10839;43.206;23.550;2022-10-30T15:51:04;9.75;;;6.60;;
21360;SDS011;10839;43.206;23.550;2022-10-30T15:56:01;9.65;;;5.05;;
21360;SDS011;10839;43.206;23.550;2022-10-30T15:58:28;13.52;;;5.57;;
21360;SDS011;10839;43.206;23.550;2022-10-30T16:00:57;9.02;;;4.13;;
21360;SDS011;10839;43.206;23.550;2022-10-30T16:03:25;8.00;;;4.15;;
21360;SDS011;10839;43.206;23.550;2022-10-30T16:06:02;8.05;;;4.70;;
21360;SDS011;10839;43.206;23.550;2022-10-30T16:08:29;9.95;;;4.50;;
21360;SDS011;10839;43.206;23.550;2022-10-30T16:10:55;9.27;;;5.20;;
21360;SDS011;10839;43.206;23.550;2022-10-30T16:13:27;8.25;;;4.72;;
21360;SDS011;10839;43.206;23.550;2022-10-30T16:15:55;11.60;;;5.78;;
21360;SDS011;10839;43.206;23.550;2022-10-30T16:20:56;12.80;;;5.82;;
21360;SDS011;10839;43.206;23.550;2022-10-30T16:23:26;10.65;;;6.10;;
21360;SDS011;10839;43.206;23.550;2022-10-30T16:25:54;10.80;;;6.00;;
21360;SDS011;10839;43.206;23.550;2022-10-30T16:28:27;8.20;;;5.25;;
21360;SDS011;10839;43.206;23.550;2022-10-30T16:30:56;9.55;;;4.90;;
21360;SDS011;10839;43.206;23.550;2022-10-30T16:33:26;13.55;;;5.10;;
21360;SDS011;10839;43.206;23.550;2022-10-30T16:35:53;16.70;;;7.65;;
21360;SDS011;10839;43.206;23.550;2022-10-30T16:38:21;14.55;;;6.47;;
21360;SDS011;10839;43.206;23.550;2022-10-30T16:40:48;15.13;;;7.18;;
21360;SDS011;10839;43.206;23.550;2022-10-30T16:43:26;11.80;;;5.75;;
21360;SDS011;10839;43.206;23.550;2022-10-30T16:45:55;12.90;;;6.03;;
21360;SDS011;10839;43.206;23.550;2022-10-30T16:48:43;14.00;;;5.97;;
21360;SDS011;10839;43.206;23.550;2022-10-30T16:51:13;13.32;;;7.18;;
21360;SDS011;10839;43.206;23.550;2022-10-30T16:53:45;22.90;;;9.75;;
21360;SDS011;10839;43.206;23.550;2022-10-30T16:56:16;13.93;;;6.78;;
21360;SDS011;10839;43.206;23.550;2022-10-30T16:58:48;14.68;;;8.00;;
21360;SDS011;10839;43.206;23.550;2022-10-30T17:01:14;13.57;;;7.07;;
21360;SDS011;10839;43.206;23.550;2022-10-30T17:03:41;12.73;;;6.85;;
21360;SDS011;10839;43.206;23.550;2022-10-30T17:06:23;13.73;;;5.97;;
21360;SDS011;10839;43.206;23.550;2022-10-30T17:09:08;8.75;;;5.53;;
21360;SDS011;10839;43.206;23.550;2022-10-30T17:11:45;10.73;;;6.00;;
21360;SDS011;10839;43.206;23.550;2022-10-30T17:14:24;8.98;;;5.25;;
21360;SDS011;10839;43.206;23.550;2022-10-30T17:16:51;8.60;;;5.00;;
21360;SDS011;10839;43.206;23.550;2022-10-30T17:21:54;12.73;;;6.45;;
21360;SDS011;10839;43.206;23.550;2022-10-30T17:26:59;14.05;;;7.43;;
21360;SDS011;10839;43.206;23.550;2022-10-30T17:29:42;11.25;;;6.53;;
21360;SDS011;10839;43.206;23.550;2022-10-30T17:32:19;14.13;;;6.75;;
21360;SDS011;10839;43.206;23.550;2022-10-30T17:35:15;9.10;;;5.75;;
21360;SDS011;10839;43.206;23.550;2022-10-30T17:37:43;10.68;;;4.95;;
21360;SDS011;10839;43.206;23.550;2022-10-30T17:40:10;10.40;;;5.30;;
21360;SDS011;10839;43.206;23.550;2022-10-30T17:42:37;10.15;;;4.72;;
21360;SDS011;10839;43.206;23.550;2022-10-30T17:45:04;11.05;;;4.82;;
21360;SDS011;10839;43.206;23.550;2022-10-30T17:47:34;11.60;;;5.35;;
21360;SDS011;10839;43.206;23.550;2022-10-30T17:50:02;10.32;;;4.97;;
21360;SDS011;10839;43.206;23.550;2022-10-30T17:52:30;9.50;;;5.15;;
21360;SDS011;10839;43.206;23.550;2022-10-30T17:54:58;13.27;;;4.90;;
21360;SDS011;10839;43.206;23.550;2022-10-30T17:57:25;8.40;;;4.35;;
21360;SDS011;10839;43.206;23.550;2022-10-30T17:59:52;10.57;;;4.55;;
21360;SDS011;10839;43.206;23.550;2022-10-30T18:02:20;8.85;;;4.68;;
21360;SDS011;10839;43.206;23.550;2022-10-30T18:04:47;10.25;;;5.03;;
21360;SDS011;10839;43.206;23.550;2022-10-30T18:07:15;9.05;;;4.95;;